Time;durP1;ratioP1;P1;durP2;ratioP2;P2;SDS_P1;SDS_P2;PMS_P1;PMS_P2;Temp;Humidity;BMP_temperature;BMP_pressure;BME280_temperature;BME280_humidity;BME280_pressure;Samples;Min_cycle;Max_cycle;Signal;HPM_P1;HPM_P2
2021/01/08 00:00:40;;;;;;;7.18;1.33;;;19.40;88.80;;;;;;5071908;28;20378;-88
2021/01/08 00:03:07;;;;;;;6.28;1.10;;;19.50;88.00;;;;;;5071673;28;20409;-87
2021/01/08 00:05:34;;;;;;;6.30;1.25;;;19.60;83.60;;;;;;5071923;28;20376;-88
2021/01/08 00:08:01;;;;;;;8.32;1.17;;;19.60;87.30;;;;;;5071931;28;20719;-90
2021/01/08 00:10:29;;;;;;;4.30;0.98;;;19.60;87.70;;;;;;5072024;28;20373;-88
2021/01/08 00:12:56;;;;;;;5.45;1.00;;;19.50;86.60;;;;;;5071605;28;20405;-86
2021/01/08 00:15:23;;;;;;;5.10;0.60;;;19.40;88.40;;;;;;5071619;28;20484;-87
2021/01/08 00:17:50;;;;;;;2.75;0.45;;;19.00;90.00;;;;;;5071784;28;20386;-86
2021/01/08 00:20:17;;;;;;;2.35;0.70;;;18.50;91.80;;;;;;5071335;28;20374;-89
2021/01/08 00:22:46;;;;;;;5.20;0.88;;;18.20;94.30;;;;;;5071210;28;20397;-88
2021/01/08 00:25:13;;;;;;;3.55;1.10;;;18.00;95.50;;;;;;5067287;28;20394;-87
2021/01/08 00:27:40;;;;;;;4.95;1.30;;;17.70;95.80;;;;;;5071410;28;20381;-88
2021/01/08 00:30:08;;;;;;;8.50;1.30;;;17.40;96.60;;;;;;5071270;28;20370;-88
2021/01/08 00:32:36;;;;;;;8.60;1.10;;;17.40;96.50;;;;;;5071742;28;20366;-89
2021/01/08 00:35:04;;;;;;;4.90;1.23;;;17.40;97.00;;;;;;5071033;28;20378;-87
2021/01/08 00:37:31;;;;;;;9.93;1.65;;;17.60;97.10;;;;;;5071025;28;20378;-87
2021/01/08 00:39:58;;;;;;;7.18;1.42;;;17.70;96.00;;;;;;5071627;28;20378;-86
2021/01/08 00:42:25;;;;;;;7.70;1.17;;;17.80;96.90;;;;;;5071492;28;20406;-88
2021/01/08 00:44:52;;;;;;;8.90;1.50;;;17.70;97.10;;;;;;5071365;28;20445;-88
2021/01/08 00:47:19;;;;;;;10.77;1.75;;;17.80;96.30;;;;;;5071199;28;20425;-87
2021/01/08 00:49:46;;;;;;;10.43;1.90;;;17.80;96.70;;;;;;5069926;28;20399;-87
2021/01/08 00:52:13;;;;;;;9.63;1.92;;;17.60;96.50;;;;;;5071311;28;21384;-86
2021/01/08 00:54:44;;;;;;;8.00;1.35;;;17.30;97.70;;;;;;5070878;28;20872;-85
2021/01/08 00:57:11;;;;;;;10.35;1.75;;;17.10;97.70;;;;;;5071254;28;20412;-86
2021/01/08 00:59:38;;;;;;;8.60;1.75;;;17.00;99.30;;;;;;5071507;28;20453;-87
2021/01/08 01:02:05;;;;;;;9.23;1.73;;;17.10;99.00;;;;;;5069784;28;20730;-86
2021/01/08 01:04:32;;;;;;;8.38;1.60;;;17.40;98.50;;;;;;5065466;28;20383;-84
2021/01/08 01:06:59;;;;;;;8.45;1.65;;;17.60;97.70;;;;;;5066832;28;20421;-86
2021/01/08 01:09:26;;;;;;;7.75;1.40;;;17.80;97.90;;;;;;5064814;28;20423;-86
2021/01/08 01:11:53;;;;;;;13.27;1.70;;;18.10;95.90;;;;;;5065835;28;20421;-86
2021/01/08 01:14:20;;;;;;;6.40;1.37;;;18.40;94.90;;;;;;5065800;28;20386;-86
2021/01/08 01:16:47;;;;;;;10.52;1.67;;;18.70;95.00;;;;;;5057307;28;20811;-86
2021/01/08 01:19:14;;;;;;;11.18;1.83;;;19.20;93.10;;;;;;5065597;28;20391;-86
2021/01/08 01:21:41;;;;;;;11.40;2.20;;;19.50;93.00;;;;;;5061659;28;20390;-87
2021/01/08 01:24:08;;;;;;;10.70;2.05;;;20.00;92.20;;;;;;5069679;28;21169;-84
2021/01/08 01:26:35;;;;;;;10.57;1.95;;;20.20;89.30;;;;;;5070733;28;20408;-86
2021/01/08 01:29:02;;;;;;;9.63;1.58;;;20.20;89.00;;;;;;5070610;28;20382;-87
2021/01/08 01:31:30;;;;;;;7.70;1.67;;;20.10;90.40;;;;;;5070551;28;20378;-86
2021/01/08 01:33:57;;;;;;;7.45;1.60;;;20.00;89.10;;;;;;5054050;28;20376;-86
2021/01/08 01:36:24;;;;;;;11.20;1.75;;;19.90;88.40;;;;;;5068704;28;20398;-86
2021/01/08 01:38:51;;;;;;;7.22;1.45;;;19.70;87.40;;;;;;5069894;28;20822;-85
2021/01/08 01:41:18;;;;;;;8.73;1.90;;;19.60;87.50;;;;;;5070782;28;20481;-88
2021/01/08 01:43:45;;;;;;;9.27;1.65;;;19.60;85.30;;;;;;5072239;28;20370;-86
2021/01/08 01:46:20;;;;;;;8.55;1.70;;;19.60;86.00;;;;;;5084443;28;20402;-88
2021/01/08 01:48:51;;;;;;;9.33;1.60;;;19.60;86.70;;;;;;5070329;28;20370;-86
2021/01/08 01:51:21;;;;;;;9.70;1.67;;;19.70;85.70;;;;;;5070562;28;20933;-88
2021/01/08 01:53:51;;;;;;;11.45;2.00;;;19.70;84.80;;;;;;5070477;28;20374;-86
2021/01/08 01:56:18;;;;;;;8.80;1.60;;;19.90;90.00;;;;;;5067628;28;20398;-86
2021/01/08 01:58:45;;;;;;;8.43;1.87;;;20.00;88.90;;;;;;5056568;28;20382;-87
2021/01/08 02:01:12;;;;;;;8.20;1.63;;;20.10;87.10;;;;;;5070053;28;20370;-86
2021/01/08 02:03:49;;;;;;;11.38;1.80;;;20.20;83.40;;;;;;5069660;28;20933;-86
2021/01/08 02:06:20;;;;;;;9.25;1.33;;;20.10;83.20;;;;;;5069362;28;20937;-84
2021/01/08 02:08:54;;;;;;;8.38;1.90;;;20.00;82.30;;;;;;5065353;28;20406;-87
2021/01/08 02:11:28;;;;;;;5.73;1.50;;;20.10;84.10;;;;;;5049889;28;20380;-87
2021/01/08 02:14:09;;;;;;;6.10;1.50;;;20.00;84.60;;;;;;5050203;28;20376;-86
2021/01/08 02:16:37;;;;;;;9.50;1.60;;;20.20;83.10;;;;;;5050236;28;20414;-85
2021/01/08 02:19:08;;;;;;;7.18;1.50;;;20.10;80.70;;;;;;5056901;28;20418;-86
2021/01/08 02:21:42;;;;;;;9.75;1.40;;;20.10;81.00;;;;;;5063779;28;20443;-84
2021/01/08 02:24:23;;;;;;;6.17;1.43;;;19.90;80.30;;;;;;5065045;28;20397;-87
2021/01/08 02:26:52;;;;;;;6.45;1.40;;;20.00;79.90;;;;;;5057277;28;20423;-86
2021/01/08 02:29:20;;;;;;;7.07;1.40;;;20.00;81.90;;;;;;5067983;28;20485;-85
2021/01/08 02:31:47;;;;;;;7.65;1.70;;;20.00;81.50;;;;;;5069153;28;20435;-86
2021/01/08 02:34:14;;;;;;;7.13;1.75;;;20.00;81.00;;;;;;5069539;28;20877;-84
2021/01/08 02:36:44;;;;;;;10.00;1.98;;;19.90;81.00;;;;;;5065246;28;20398;-86
2021/01/08 02:39:14;;;;;;;7.00;1.67;;;19.70;81.50;;;;;;5065201;28;20366;-85
2021/01/08 02:41:47;;;;;;;9.55;1.60;;;19.60;81.40;;;;;;5068332;28;20425;-86
2021/01/08 02:44:16;;;;;;;9.07;2.20;;;19.50;83.10;;;;;;5057556;28;20400;-88
2021/01/08 02:46:44;;;;;;;9.90;1.63;;;19.50;82.90;;;;;;5069150;28;20378;-86
2021/01/08 02:49:11;;;;;;;10.82;1.92;;;19.30;83.30;;;;;;5069136;28;20374;-85
2021/01/08 02:51:40;;;;;;;10.30;1.63;;;19.40;82.80;;;;;;5067096;28;21337;-86
2021/01/08 02:54:09;;;;;;;10.55;2.05;;;19.50;85.10;;;;;;5068663;28;20393;-86
2021/01/08 02:56:51;;;;;;;8.40;1.77;;;19.70;83.50;;;;;;5063987;28;20483;-86
2021/01/08 02:59:18;;;;;;;11.52;1.98;;;19.80;80.30;;;;;;5059453;28;20940;-86
2021/01/08 03:01:45;;;;;;;9.65;1.60;;;19.70;82.30;;;;;;5062804;28;20413;-85
2021/01/08 03:04:12;;;;;;;8.68;2.15;;;19.70;83.70;;;;;;5073644;28;20752;-86
2021/01/08 03:06:43;;;;;;;13.55;2.17;;;19.70;85.50;;;;;;5064046;28;20394;-86
2021/01/08 03:09:10;;;;;;;7.47;1.55;;;19.70;84.90;;;;;;5070440;28;20828;-86
2021/01/08 03:11:37;;;;;;;9.35;1.63;;;19.60;84.90;;;;;;5068179;28;20489;-86
2021/01/08 03:14:05;;;;;;;10.25;1.73;;;19.60;86.50;;;;;;5067739;28;20753;-86
2021/01/08 03:16:32;;;;;;;7.60;1.90;;;19.50;83.80;;;;;;5058931;28;20398;-86
2021/01/08 03:18:59;;;;;;;10.55;2.25;;;19.50;85.70;;;;;;5070162;28;20384;-86
2021/01/08 03:21:26;;;;;;;11.45;2.08;;;19.60;83.50;;;;;;5056436;28;20371;-84
2021/01/08 03:23:53;;;;;;;14.35;1.75;;;19.80;85.50;;;;;;5065126;28;20412;-85
2021/01/08 03:26:20;;;;;;;6.93;1.70;;;19.90;83.70;;;;;;5072763;28;20382;-84
2021/01/08 03:28:47;;;;;;;7.35;1.67;;;19.90;81.00;;;;;;5072586;28;20791;-87
2021/01/08 03:31:14;;;;;;;14.80;2.83;;;19.90;82.60;;;;;;5072281;28;20377;-86
2021/01/08 03:33:41;;;;;;;11.30;1.70;;;20.00;82.70;;;;;;5073083;28;20361;-86
2021/01/08 03:36:08;;;;;;;10.02;1.70;;;20.20;80.30;;;;;;5072494;28;20433;-87
2021/01/08 03:38:35;;;;;;;9.40;2.30;;;20.20;82.00;;;;;;5072928;28;20380;-86
2021/01/08 03:41:02;;;;;;;9.50;1.80;;;20.30;82.90;;;;;;5056592;28;20399;-86
2021/01/08 03:43:29;;;;;;;11.75;1.98;;;20.20;82.20;;;;;;5053269;28;20371;-86
2021/01/08 03:45:56;;;;;;;8.52;1.92;;;20.00;82.30;;;;;;5052759;28;20919;-86
2021/01/08 03:48:23;;;;;;;10.38;1.77;;;19.80;83.20;;;;;;5057712;28;20393;-86
2021/01/08 03:50:50;;;;;;;11.50;2.10;;;19.70;83.50;;;;;;5072483;28;20370;-87
2021/01/08 03:53:17;;;;;;;9.20;1.90;;;19.60;84.50;;;;;;5070805;28;20519;-87
2021/01/08 03:55:44;;;;;;;14.18;2.20;;;19.80;86.40;;;;;;5062970;28;20748;-85
2021/01/08 03:58:11;;;;;;;8.93;2.20;;;19.90;85.20;;;;;;5069866;28;20457;-86
2021/01/08 04:00:38;;;;;;;7.30;1.65;;;20.00;85.40;;;;;;5050214;28;20399;-85
2021/01/08 04:03:05;;;;;;;9.50;1.70;;;20.00;85.30;;;;;;5074720;28;20411;-85
2021/01/08 04:05:32;;;;;;;10.75;1.65;;;20.00;85.70;;;;;;5072278;28;20535;-86
2021/01/08 04:07:59;;;;;;;8.73;1.73;;;19.80;87.00;;;;;;5066753;28;20386;-87
2021/01/08 04:10:26;;;;;;;9.30;1.77;;;19.70;87.70;;;;;;5062652;28;20408;-86
2021/01/08 04:12:53;;;;;;;8.70;2.00;;;19.70;88.00;;;;;;5072313;28;20393;-87
2021/01/08 04:15:20;;;;;;;15.20;2.15;;;19.70;86.70;;;;;;5072049;28;20421;-89
2021/01/08 04:17:47;;;;;;;13.60;2.50;;;19.60;88.00;;;;;;5072014;28;20374;-87
2021/01/08 04:20:14;;;;;;;10.38;1.95;;;19.60;87.60;;;;;;5071704;28;20446;-88
2021/01/08 04:22:41;;;;;;;10.45;1.60;;;19.50;87.90;;;;;;5071870;28;20370;-86
2021/01/08 04:25:09;;;;;;;8.25;1.67;;;19.50;88.30;;;;;;5072013;28;20401;-86
2021/01/08 04:27:36;;;;;;;8.93;1.98;;;19.60;87.80;;;;;;5053660;28;20403;-88
2021/01/08 04:30:05;;;;;;;9.80;1.67;;;19.70;87.30;;;;;;5069898;28;20542;-86
2021/01/08 04:32:32;;;;;;;10.02;1.70;;;19.80;85.70;;;;;;5070784;28;20398;-86
2021/01/08 04:35:00;;;;;;;9.32;1.90;;;19.80;86.00;;;;;;5071223;28;20436;-87
2021/01/08 04:37:27;;;;;;;10.60;2.47;;;19.90;85.00;;;;;;5071428;28;20386;-86
2021/01/08 04:39:54;;;;;;;7.32;1.63;;;20.00;85.30;;;;;;5071273;28;20378;-88
2021/01/08 04:42:21;;;;;;;6.22;1.40;;;20.20;82.50;;;;;;5072097;28;20439;-86
2021/01/08 04:44:48;;;;;;;9.40;1.60;;;20.10;82.10;;;;;;5073412;28;20761;-87
2021/01/08 04:47:17;;;;;;;8.23;1.48;;;20.00;80.90;;;;;;5072158;28;20396;-88
2021/01/08 04:49:44;;;;;;;9.50;1.75;;;20.00;81.90;;;;;;5071755;28;20939;-87
2021/01/08 04:52:12;;;;;;;6.45;1.33;;;20.00;82.60;;;;;;5071922;28;20370;-85
2021/01/08 04:54:39;;;;;;;13.88;3.00;;;19.90;81.90;;;;;;5070442;28;20389;-87
2021/01/08 04:57:09;;;;;;;6.07;0.90;;;19.90;84.90;;;;;;5070741;28;20513;-87
2021/01/08 04:59:36;;;;;;;8.77;1.40;;;19.80;83.70;;;;;;5070786;28;20483;-88
2021/01/08 05:02:03;;;;;;;5.60;1.10;;;19.80;84.60;;;;;;5070735;28;20382;-86
2021/01/08 05:04:31;;;;;;;4.60;1.15;;;19.80;85.30;;;;;;5070379;28;20381;-87
2021/01/08 05:06:58;;;;;;;7.63;1.30;;;19.70;85.00;;;;;;5070411;28;20385;-84
2021/01/08 05:09:25;;;;;;;8.05;1.30;;;19.70;85.80;;;;;;5070559;28;20390;-85
2021/01/08 05:11:57;;;;;;;7.13;1.17;;;19.60;85.00;;;;;;5069393;28;20412;-85
2021/01/08 05:14:26;;;;;;;5.93;1.48;;;19.40;86.70;;;;;;5069582;28;20417;-87
2021/01/08 05:16:56;;;;;;;5.38;1.02;;;19.30;86.60;;;;;;5066231;28;20464;-85
2021/01/08 05:19:27;;;;;;;6.10;1.00;;;19.30;88.00;;;;;;5066011;28;20475;-85
2021/01/08 05:21:54;;;;;;;6.00;1.20;;;19.30;88.40;;;;;;5041003;28;20393;-86
2021/01/08 05:24:24;;;;;;;6.68;1.33;;;19.50;88.10;;;;;;5069606;28;20444;-85
2021/01/08 05:26:51;;;;;;;5.13;0.97;;;19.50;87.80;;;;;;5069145;28;20799;-87
2021/01/08 05:29:19;;;;;;;8.02;1.20;;;19.50;87.20;;;;;;5070261;28;20371;-86
2021/01/08 05:31:48;;;;;;;6.55;1.38;;;19.40;87.30;;;;;;5069619;28;20394;-85
2021/01/08 05:34:25;;;;;;;6.93;1.20;;;19.50;87.90;;;;;;5069824;28;20896;-85
2021/01/08 05:36:53;;;;;;;5.00;0.95;;;19.60;86.70;;;;;;5059420;28;20410;-86
2021/01/08 05:39:21;;;;;;;5.67;1.73;;;19.70;86.10;;;;;;5050642;28;20400;-86
2021/01/08 05:41:48;;;;;;;7.93;1.23;;;19.60;85.40;;;;;;5058208;28;20382;-84
2021/01/08 05:44:17;;;;;;;6.78;1.10;;;19.60;84.60;;;;;;5067980;28;20467;-85
2021/01/08 05:46:46;;;;;;;7.07;1.20;;;19.60;88.10;;;;;;5068591;28;20423;-84
2021/01/08 05:49:13;;;;;;;8.02;1.20;;;19.60;87.00;;;;;;5068308;28;20382;-85
2021/01/08 05:51:41;;;;;;;5.68;1.20;;;19.60;87.50;;;;;;5067262;28;20398;-85
2021/01/08 05:54:09;;;;;;;5.97;0.95;;;19.70;87.60;;;;;;5067994;28;20386;-87
2021/01/08 05:56:37;;;;;;;4.53;1.00;;;19.80;87.50;;;;;;5057882;28;20767;-85
2021/01/08 05:59:08;;;;;;;6.47;1.20;;;19.80;87.00;;;;;;5061707;28;20412;-84
2021/01/08 06:01:42;;;;;;;8.63;1.15;;;19.80;86.70;;;;;;5063296;28;20409;-86
2021/01/08 06:04:09;;;;;;;4.00;0.95;;;19.70;88.10;;;;;;5062814;28;20474;-84
2021/01/08 06:06:41;;;;;;;6.07;1.23;;;19.70;86.70;;;;;;5065420;28;20417;-86
2021/01/08 06:09:12;;;;;;;5.00;1.00;;;19.60;87.70;;;;;;5049014;28;20673;-85
2021/01/08 06:11:43;;;;;;;5.45;0.93;;;19.50;85.20;;;;;;5049659;28;20402;-84
2021/01/08 06:14:11;;;;;;;9.57;1.40;;;19.40;86.50;;;;;;5067272;28;20402;-85
2021/01/08 06:16:40;;;;;;;5.78;1.10;;;19.40;86.90;;;;;;5058127;28;20428;-83
2021/01/08 06:19:09;;;;;;;5.78;1.10;;;19.40;88.10;;;;;;5069377;28;20392;-83
2021/01/08 06:21:36;;;;;;;4.85;0.98;;;19.40;87.50;;;;;;5068961;28;20375;-87
2021/01/08 06:24:04;;;;;;;5.25;1.00;;;19.50;86.60;;;;;;5055465;28;20379;-83
2021/01/08 06:26:32;;;;;;;4.65;1.10;;;19.50;87.50;;;;;;5054371;28;20402;-85
2021/01/08 06:29:10;;;;;;;3.92;0.82;;;19.50;86.90;;;;;;5067110;28;20864;-86
2021/01/08 06:31:48;;;;;;;6.70;1.30;;;19.50;86.20;;;;;;5064657;28;20452;-89
2021/01/08 06:34:22;;;;;;;6.95;1.10;;;19.50;86.10;;;;;;5050123;28;20386;-84
2021/01/08 06:37:10;;;;;;;6.10;0.90;;;19.50;87.90;;;;;;5053668;28;20477;-87
2021/01/08 06:39:44;;;;;;;4.65;1.00;;;19.40;88.90;;;;;;5066301;28;20503;-90
2021/01/08 06:42:28;;;;;;;7.70;1.03;;;19.40;90.00;;;;;;5068141;28;20413;-89
2021/01/08 06:44:56;;;;;;;6.60;1.48;;;19.40;89.10;;;;;;5068317;28;20401;-85
2021/01/08 06:47:23;;;;;;;6.30;1.27;;;19.30;88.40;;;;;;5060638;28;20398;-87
2021/01/08 06:49:54;;;;;;;6.82;1.00;;;19.20;88.30;;;;;;5060647;28;20393;-91
2021/01/08 06:52:25;;;;;;;5.78;0.93;;;19.20;89.20;;;;;;5066080;28;20865;-87
2021/01/08 06:54:55;;;;;;;6.32;1.40;;;19.20;89.70;;;;;;5070051;28;20370;-87
2021/01/08 06:57:23;;;;;;;5.43;1.17;;;19.10;90.10;;;;;;5044156;28;20775;-87
2021/01/08 07:00:04;;;;;;;8.77;1.17;;;19.00;90.20;;;;;;5067287;28;20451;-86
2021/01/08 07:02:33;;;;;;;7.75;1.50;;;19.10;90.60;;;;;;5065021;28;20398;-88
2021/01/08 07:05:01;;;;;;;9.65;1.48;;;19.10;90.80;;;;;;5064110;28;20432;-86
2021/01/08 07:07:32;;;;;;;8.57;1.43;;;19.10;90.60;;;;;;5069155;28;20490;-86
2021/01/08 07:10:01;;;;;;;5.88;1.38;;;19.00;90.70;;;;;;5067670;28;20393;-87
2021/01/08 07:12:28;;;;;;;9.77;1.70;;;19.00;90.30;;;;;;5067232;28;20611;-83
2021/01/08 07:14:55;;;;;;;5.57;1.38;;;19.00;90.10;;;;;;5069450;28;20398;-86
2021/01/08 07:17:44;;;;;;;7.67;1.47;;;19.00;89.70;;;;;;5068384;28;20500;-86
2021/01/08 07:20:12;;;;;;;5.82;1.33;;;19.00;90.10;;;;;;5064089;28;20468;-86
2021/01/08 07:22:42;;;;;;;7.70;1.50;;;18.90;90.00;;;;;;5066424;28;20401;-86
2021/01/08 07:25:14;;;;;;;4.50;1.27;;;18.90;90.00;;;;;;5064843;28;20397;-86
2021/01/08 07:27:45;;;;;;;7.43;1.93;;;18.90;90.20;;;;;;5066805;28;20737;-84
2021/01/08 07:30:13;;;;;;;10.05;1.55;;;18.90;90.70;;;;;;5066669;28;20408;-86
2021/01/08 07:32:40;;;;;;;7.85;1.50;;;19.00;90.40;;;;;;5068329;28;20423;-84
2021/01/08 07:35:34;;;;;;;9.02;1.77;;;19.00;90.20;;;;;;5066800;28;20390;-84
2021/01/08 07:38:15;;;;;;;7.28;1.70;;;19.00;90.40;;;;;;5063787;28;20416;-85
2021/01/08 07:40:57;;;;;;;8.27;1.50;;;19.00;90.60;;;;;;5064433;28;20425;-85
2021/01/08 07:43:35;;;;;;;8.68;1.48;;;18.80;91.20;;;;;;5067892;28;20900;-88
2021/01/08 07:46:03;;;;;;;7.85;1.30;;;18.80;91.80;;;;;;5067931;28;20386;-86
2021/01/08 07:48:41;;;;;;;10.35;1.77;;;18.70;92.00;;;;;;5065680;28;20406;-87
2021/01/08 07:51:10;;;;;;;4.95;1.48;;;18.60;92.70;;;;;;5066729;28;20413;-84
2021/01/08 07:53:43;;;;;;;11.57;1.85;;;18.40;92.90;;;;;;5078923;28;20418;-85
2021/01/08 07:56:15;;;;;;;8.68;1.35;;;18.30;92.40;;;;;;5082209;28;20476;-84
2021/01/08 07:58:55;;;;;;;9.65;1.48;;;18.30;93.10;;;;;;5057896;28;20758;-83
2021/01/08 08:01:22;;;;;;;12.35;1.48;;;18.30;92.30;;;;;;5058487;28;20379;-84
2021/01/08 08:04:01;;;;;;;6.72;1.15;;;18.40;92.20;;;;;;5062627;28;20408;-85
2021/01/08 08:06:30;;;;;;;8.85;1.58;;;18.30;92.30;;;;;;5068656;28;20382;-85
2021/01/08 08:09:03;;;;;;;6.57;1.40;;;18.40;91.40;;;;;;5064960;28;20412;-85
2021/01/08 08:11:33;;;;;;;10.27;1.70;;;18.40;91.20;;;;;;5060682;28;20403;-86
2021/01/08 08:14:00;;;;;;;7.27;1.47;;;18.40;91.00;;;;;;5069104;28;20396;-84
2021/01/08 08:16:45;;;;;;;8.93;1.50;;;18.40;90.80;;;;;;5070105;28;20770;-84
2021/01/08 08:19:14;;;;;;;7.32;1.48;;;18.40;90.90;;;;;;5068505;28;20904;-87
2021/01/08 08:21:53;;;;;;;7.10;1.35;;;18.40;91.00;;;;;;5069975;28;20856;-84
2021/01/08 08:24:20;;;;;;;7.85;1.88;;;18.40;90.70;;;;;;5068539;28;20451;-87
2021/01/08 08:26:47;;;;;;;8.73;1.50;;;18.40;90.80;;;;;;5066897;28;20516;-86
2021/01/08 08:29:16;;;;;;;8.00;1.42;;;18.40;90.20;;;;;;5068284;28;20447;-86
2021/01/08 08:31:48;;;;;;;7.90;1.17;;;18.50;89.60;;;;;;5069339;28;20409;-86
2021/01/08 08:34:25;;;;;;;6.45;1.38;;;18.50;90.20;;;;;;5069812;28;20413;-87
2021/01/08 08:36:52;;;;;;;5.22;1.50;;;18.50;89.60;;;;;;5069044;28;20406;-86
2021/01/08 08:39:19;;;;;;;9.40;1.52;;;18.40;89.70;;;;;;5049429;28;20440;-85
2021/01/08 08:41:48;;;;;;;5.28;1.10;;;18.40;89.80;;;;;;5062927;28;20445;-86
2021/01/08 08:44:19;;;;;;;8.57;1.50;;;18.50;89.90;;;;;;5056644;28;20402;-86
2021/01/08 08:46:53;;;;;;;6.53;1.50;;;18.40;90.10;;;;;;5048221;28;21138;-86
2021/01/08 08:49:25;;;;;;;7.45;1.23;;;18.40;90.30;;;;;;5064096;28;20813;-86
2021/01/08 08:51:53;;;;;;;7.50;1.40;;;18.40;90.10;;;;;;5067222;28;20465;-86
2021/01/08 08:54:23;;;;;;;7.90;1.33;;;18.40;90.30;;;;;;5068061;28;20405;-87
2021/01/08 08:56:54;;;;;;;6.15;1.42;;;18.30;90.40;;;;;;5068394;28;20409;-87
2021/01/08 08:59:40;;;;;;;5.38;1.40;;;18.20;90.70;;;;;;5067103;28;20749;-86
2021/01/08 09:02:28;;;;;;;5.75;0.95;;;18.20;90.80;;;;;;5067717;28;20378;-87
2021/01/08 09:04:56;;;;;;;10.02;1.52;;;18.30;90.60;;;;;;5066601;28;20390;-86
2021/01/08 09:07:39;;;;;;;8.80;1.40;;;18.30;90.60;;;;;;5066613;28;20536;-86
2021/01/08 09:10:13;;;;;;;11.05;1.52;;;18.30;90.30;;;;;;5067491;28;20409;-86
2021/01/08 09:12:47;;;;;;;6.53;1.43;;;18.30;90.30;;;;;;5067435;28;20481;-86
2021/01/08 09:15:21;;;;;;;7.07;1.25;;;18.20;90.30;;;;;;5066903;28;20455;-85
2021/01/08 09:17:53;;;;;;;5.93;1.33;;;18.20;90.20;;;;;;5067675;28;20390;-85
2021/01/08 09:20:24;;;;;;;7.47;1.20;;;18.10;90.60;;;;;;5062053;28;20397;-85
2021/01/08 09:22:52;;;;;;;4.28;1.10;;;18.10;90.60;;;;;;5055968;28;20382;-85
2021/01/08 09:25:19;;;;;;;4.97;1.03;;;18.00;90.70;;;;;;5059411;28;20469;-86
2021/01/08 09:27:46;;;;;;;5.90;1.23;;;18.00;90.80;;;;;;5059472;28;20408;-85
2021/01/08 09:30:14;;;;;;;5.10;1.30;;;18.00;90.60;;;;;;5062434;28;20765;-86
2021/01/08 09:32:41;;;;;;;5.80;1.23;;;18.10;90.60;;;;;;5066843;28;20404;-86
2021/01/08 09:35:10;;;;;;;8.60;1.17;;;18.00;90.60;;;;;;5067178;28;20420;-86
2021/01/08 09:37:51;;;;;;;6.87;1.40;;;18.10;90.60;;;;;;5062114;28;20759;-86
2021/01/08 09:40:20;;;;;;;7.77;1.03;;;18.00;91.00;;;;;;5066775;28;20381;-87
2021/01/08 09:42:48;;;;;;;6.67;1.20;;;17.90;91.00;;;;;;5065111;28;20455;-86
2021/01/08 09:45:24;;;;;;;7.43;1.02;;;17.90;91.40;;;;;;5067342;28;20417;-85
2021/01/08 09:47:52;;;;;;;5.15;1.02;;;17.90;91.10;;;;;;5066317;28;20390;-86
2021/01/08 09:50:38;;;;;;;8.07;1.60;;;17.90;91.20;;;;;;5066417;28;20394;-85
2021/01/08 09:53:11;;;;;;;6.85;0.98;;;18.00;91.00;;;;;;5065356;28;20477;-86
2021/01/08 09:55:38;;;;;;;7.32;1.30;;;18.10;91.00;;;;;;5065571;28;20401;-86
2021/01/08 09:58:05;;;;;;;6.72;1.35;;;18.00;91.10;;;;;;5065675;28;20405;-86
2021/01/08 10:00:37;;;;;;;5.07;1.17;;;18.00;91.30;;;;;;5057915;28;20376;-86
2021/01/08 10:03:05;;;;;;;6.72;1.13;;;18.00;91.40;;;;;;5060396;28;20437;-86
2021/01/08 10:05:35;;;;;;;6.18;1.10;;;18.00;91.30;;;;;;5065095;28;20398;-86
2021/01/08 10:08:04;;;;;;;5.28;0.90;;;18.00;91.10;;;;;;5065813;28;20452;-86
2021/01/08 10:10:36;;;;;;;7.55;1.52;;;18.10;91.20;;;;;;5066821;28;20374;-86
2021/01/08 10:13:07;;;;;;;3.38;1.13;;;18.10;91.10;;;;;;5066037;28;20900;-85
2021/01/08 10:15:39;;;;;;;8.30;1.42;;;18.00;91.40;;;;;;5065361;28;20404;-86
2021/01/08 10:18:12;;;;;;;6.82;1.25;;;18.10;91.50;;;;;;5062042;28;20389;-85
2021/01/08 10:21:03;;;;;;;8.90;1.20;;;18.00;91.60;;;;;;5062894;28;20796;-86
2021/01/08 10:23:30;;;;;;;7.55;1.00;;;18.00;91.40;;;;;;5054125;28;20403;-85
2021/01/08 10:26:16;;;;;;;7.03;1.05;;;18.00;91.60;;;;;;5065879;28;21116;-86
2021/01/08 10:29:04;;;;;;;9.13;1.40;;;17.90;91.40;;;;;;5058371;28;20386;-84
2021/01/08 10:31:31;;;;;;;8.80;1.75;;;17.90;91.80;;;;;;5065968;28;20366;-85
2021/01/08 10:34:00;;;;;;;5.97;1.15;;;17.90;91.60;;;;;;5065381;28;20390;-86
2021/01/08 10:36:27;;;;;;;8.60;1.40;;;17.90;92.00;;;;;;5066116;28;21085;-86
2021/01/08 10:38:54;;;;;;;5.28;1.17;;;17.80;92.00;;;;;;5066026;28;20370;-85
2021/01/08 10:41:21;;;;;;;7.75;1.20;;;17.80;92.40;;;;;;5065847;28;20393;-85
2021/01/08 10:43:49;;;;;;;8.77;1.58;;;17.80;92.30;;;;;;5049111;28;20387;-86
2021/01/08 10:46:19;;;;;;;6.40;1.23;;;17.80;92.10;;;;;;5046008;28;20874;-87
2021/01/08 10:48:47;;;;;;;9.43;1.42;;;17.70;92.20;;;;;;5040028;28;20859;-86
2021/01/08 10:51:14;;;;;;;7.32;1.27;;;17.70;92.60;;;;;;5047895;28;20745;-87
2021/01/08 10:53:41;;;;;;;7.93;1.27;;;17.70;92.40;;;;;;5065801;28;20386;-87
2021/01/08 10:56:08;;;;;;;6.70;1.20;;;17.70;92.70;;;;;;5077617;28;20772;-85
2021/01/08 10:58:35;;;;;;;7.78;1.27;;;17.70;92.80;;;;;;5048970;28;20401;-87
2021/01/08 11:01:02;;;;;;;7.88;1.30;;;17.70;92.80;;;;;;5065990;28;20355;-87
2021/01/08 11:03:29;;;;;;;5.22;1.38;;;17.60;93.00;;;;;;5065092;28;20429;-85
2021/01/08 11:05:56;;;;;;;7.10;1.50;;;17.60;93.10;;;;;;5062033;28;20463;-85
2021/01/08 11:08:24;;;;;;;6.68;1.20;;;17.70;93.00;;;;;;5057727;28;20469;-86
2021/01/08 11:10:51;;;;;;;9.63;1.45;;;17.60;93.20;;;;;;5058778;28;20393;-85
2021/01/08 11:13:18;;;;;;;8.35;1.70;;;17.60;93.30;;;;;;5058029;28;21029;-86
2021/01/08 11:15:45;;;;;;;7.30;1.30;;;17.60;93.40;;;;;;5061386;28;20424;-85
2021/01/08 11:18:12;;;;;;;7.05;1.48;;;17.60;93.50;;;;;;5059185;28;20389;-86
2021/01/08 11:20:39;;;;;;;7.03;1.45;;;17.60;93.50;;;;;;5063692;28;20508;-87
2021/01/08 11:23:06;;;;;;;9.35;1.35;;;17.60;93.50;;;;;;5067998;28;20440;-86
2021/01/08 11:25:33;;;;;;;9.90;1.70;;;17.60;93.60;;;;;;5067615;28;20401;-87
2021/01/08 11:28:00;;;;;;;5.60;1.20;;;17.60;93.60;;;;;;5059490;28;20394;-87
2021/01/08 11:30:27;;;;;;;9.13;1.58;;;17.60;93.60;;;;;;5063982;28;20393;-85
2021/01/08 11:32:55;;;;;;;5.35;1.30;;;17.50;93.80;;;;;;5063955;28;20397;-86
2021/01/08 11:35:22;;;;;;;8.45;1.55;;;17.50;93.80;;;;;;5061572;28;20399;-87
2021/01/08 11:37:49;;;;;;;6.47;1.13;;;17.50;93.60;;;;;;5067840;28;20905;-86
2021/01/08 11:40:16;;;;;;;6.63;1.40;;;17.50;93.90;;;;;;5068701;28;20770;-85
2021/01/08 11:42:43;;;;;;;7.05;1.55;;;17.50;93.80;;;;;;5071658;28;20456;-88
2021/01/08 11:45:10;;;;;;;6.07;1.00;;;17.50;94.20;;;;;;5069843;28;20414;-87
2021/01/08 11:47:37;;;;;;;6.33;1.20;;;17.50;94.00;;;;;;5072470;28;20386;-85
2021/01/08 11:50:06;;;;;;;7.28;1.73;;;17.50;93.90;;;;;;5071948;28;20740;-86
2021/01/08 11:52:33;;;;;;;7.28;1.45;;;17.50;93.80;;;;;;5069322;28;20490;-83
2021/01/08 11:55:00;;;;;;;10.82;1.65;;;17.50;93.70;;;;;;5071648;28;20385;-86
2021/01/08 11:57:27;;;;;;;5.80;1.40;;;17.60;93.50;;;;;;5071546;28;20502;-87
2021/01/08 11:59:54;;;;;;;4.07;1.20;;;17.70;93.60;;;;;;5071806;28;20912;-85
2021/01/08 12:02:22;;;;;;;7.28;1.40;;;17.70;93.60;;;;;;5067348;28;20401;-87
2021/01/08 12:04:49;;;;;;;5.50;1.07;;;17.60;93.80;;;;;;5069761;28;20469;-86
2021/01/08 12:07:16;;;;;;;5.65;1.10;;;17.60;93.90;;;;;;5062718;28;20905;-86
2021/01/08 12:09:43;;;;;;;7.15;1.35;;;17.60;94.00;;;;;;5063045;28;20403;-86
2021/01/08 12:12:10;;;;;;;7.93;1.13;;;17.50;94.20;;;;;;5062669;28;20423;-87
2021/01/08 12:14:37;;;;;;;8.87;1.30;;;17.50;94.00;;;;;;5067551;28;20864;-87
2021/01/08 12:17:06;;;;;;;6.40;1.38;;;17.40;94.30;;;;;;5065306;28;20409;-85
2021/01/08 12:19:34;;;;;;;7.60;1.50;;;17.40;94.60;;;;;;5060163;28;20391;-85
2021/01/08 12:22:02;;;;;;;8.10;1.43;;;17.30;94.60;;;;;;5068127;28;20390;-87
2021/01/08 12:24:29;;;;;;;5.75;1.00;;;17.30;94.50;;;;;;5070456;28;20390;-86
2021/01/08 12:26:56;;;;;;;10.23;1.30;;;17.10;94.90;;;;;;5071124;28;20477;-86
2021/01/08 12:29:24;;;;;;;6.07;0.95;;;17.10;94.80;;;;;;5071304;28;20402;-87
2021/01/08 12:31:51;;;;;;;4.35;1.20;;;17.10;94.50;;;;;;5070546;28;20443;-87
2021/01/08 12:34:18;;;;;;;5.75;1.20;;;17.00;94.80;;;;;;5079536;28;20398;-86
2021/01/08 12:36:46;;;;;;;6.30;1.17;;;17.00;94.60;;;;;;5069888;28;20410;-86
2021/01/08 12:39:13;;;;;;;8.85;1.35;;;16.90;94.80;;;;;;5071272;28;20402;-86
2021/01/08 12:41:40;;;;;;;4.07;1.00;;;16.90;94.70;;;;;;5071673;28;20413;-86
2021/01/08 12:44:08;;;;;;;5.38;0.90;;;16.90;95.00;;;;;;5067277;28;20420;-86
2021/01/08 12:46:35;;;;;;;7.18;1.23;;;16.80;95.30;;;;;;5071379;28;20416;-86
2021/01/08 12:49:05;;;;;;;6.93;1.10;;;16.80;95.60;;;;;;5065131;28;20406;-86
2021/01/08 12:51:33;;;;;;;10.80;1.50;;;16.70;96.00;;;;;;5067600;28;21115;-86
2021/01/08 12:54:00;;;;;;;6.33;1.37;;;16.60;95.90;;;;;;5063352;28;20397;-86
2021/01/08 12:56:32;;;;;;;5.20;1.02;;;16.60;96.20;;;;;;5065926;28;20441;-86